Flight Track Log - Related Links

Times and Time Zones

All times are in EDT time to prevent confusion due to time zone crossing. See the FLG3722 flight status page for this flight to view local times or setup timezone preferences in your user account.


Time Position Orientation Groundspeed Altitude Reporting Facility
EDT Latitude Longitude Course Direction KTS MPH feet Rate Location/Type
Wed 02:10:00 PM 38.7697 -84.6078 163° South  Level FlightAware Approximate
Wed 02:10:21 PM 38.8886 -84.6647 180° South 251 289 7,300  Level Indianapolis Center
Wed 02:11:00 PM 38.6761 -84.5704 163° South  Level FlightAware Approximate
Wed 02:11:23 PM 38.8161 -84.6464 169° South 263 303 10,100  Level Indianapolis Center
Wed 02:12:00 PM 38.5808 -84.5409 167° South  Level FlightAware Approximate
Wed 02:12:25 PM 38.7447 -84.6231 166° South 263 303 12,700  Level Indianapolis Center
Wed 02:13:00 PM 38.4854 -84.5118 165° South  Level FlightAware Approximate
Wed 02:13:27 PM 38.6703 -84.6306 184° South 267 307 12,900  Level Indianapolis Center
Wed 02:14:00 PM 38.3886 -84.4981 177° South  Level FlightAware Approximate
Wed 02:14:28 PM 38.5883 -84.6439 187° South 265 305 13,400  Level Indianapolis Center
Wed 02:15:00 PM 38.2869 -84.4989 180° South  Level FlightAware Approximate
Wed 02:15:30 PM 38.5111 -84.6547 186° South 275 316 14,700  Level Indianapolis Center
Wed 02:16:32 PM 38.4344 -84.6575 182° South 273 314 16,300 1,452 Climbing Indianapolis Center
Wed 02:17:34 PM 38.3575 -84.6342 167° South 281 323 17,700 1,463 Climbing Indianapolis Center
Wed 02:18:35 PM 38.2800 -84.6136 168° South 283 326 19,300 1,268 Climbing Indianapolis Center
Wed 02:19:37 PM 38.1867 -84.5903 169° South 296 341 20,300 871 Climbing Indianapolis Center
Wed 02:20:39 PM 38.0975 -84.5714 171° South 320 368 21,100 726 Climbing Indianapolis Center
Wed 02:21:41 PM 38.0050 -84.5494 169° South 337 388 21,800 683 Climbing Indianapolis Center
Wed 02:22:42 PM 37.9075 -84.5286 170° South 352 405 22,500 683 Climbing Indianapolis Center
Wed 02:23:44 PM 37.8067 -84.5064 170° South 364 419 23,200 677 Climbing Indianapolis Center
Wed 02:24:46 PM 37.7058 -84.4836 170° South 368 423 23,900 774 Climbing Indianapolis Center
Wed 02:25:48 PM 37.5864 -84.4572 170° South 372 428 24,800 780 Climbing Indianapolis Center
Wed 02:26:49 PM 37.4842 -84.4353 170° South 373 429 25,500 683 Climbing Indianapolis Center
Wed 02:27:51 PM 37.3800 -84.4142 171° South 378 435 26,200 677 Climbing Indianapolis Center
Wed 02:28:53 PM 37.2767 -84.3939 171° South 377 434 26,900 387 Climbing Indianapolis Center
Wed 02:29:55 PM 37.1719 -84.3736 171° South 382 440 27,000 49 Climbing Indianapolis Center
Wed 02:30:56 PM 37.0439 -84.3478 171° South 397 457 27,000  Level Indianapolis Center
Wed 02:31:58 PM 36.9317 -84.3294 173° South 406 467 27,000  Level Indianapolis Center
Wed 02:33:00 PM 36.8175 -84.3108 173° South 412 474 27,000  Level Indianapolis Center
Wed 02:34:02 PM 36.7011 -84.2703 164° South 437 503 27,000  Level Indianapolis Center
Wed 02:35:04 PM 36.5950 -84.1825 146° Southeast 462 532 27,000  Level Indianapolis Center
Wed 02:36:05 PM 36.4806 -84.1089 153° Southeast 447 514 27,000  Level Indianapolis Center
Wed 02:37:07 PM 36.3700 -84.0422 154° Southeast 442 509 27,000  Level Indianapolis Center
Wed 02:38:09 PM 36.2750 -83.9386 139° Southeast 484 557 27,000  Level Indianapolis Center
Wed 02:38:53 PM 36.2250 -83.8278 119° Southeast 449 517 27,000  Level Atlanta Center
Wed 02:39:53 PM 36.1558 -83.6786 120° Southeast 469 540 27,000  Level Atlanta Center
Wed 02:40:55 PM 36.0886 -83.5325 120° Southeast 480 552 27,000  Level Atlanta Center
Wed 02:42:05 PM 36.0083 -83.3328 116° Southeast 491 565 27,000  Level Atlanta Center
Wed 02:43:05 PM 35.9739 -83.1689 105° East 491 565 27,000 -600 Level Atlanta Center
Wed 02:44:05 PM 35.9414 -83.0025 104° East 491 565 25,800 -1,400 Descending Atlanta Center
Wed 02:45:05 PM 35.9086 -82.8389 104° East 486 559 24,200 -900 Descending Atlanta Center
Wed 02:46:05 PM 35.8778 -82.6831 104° East 479 551 24,000 -100 Descending Atlanta Center
Wed 02:47:05 PM 35.8486 -82.5194 102° East 472 543 24,000 -700 Level Atlanta Center
Wed 02:48:05 PM 35.8172 -82.3589 104° East 477 549 22,600 -1,600 Descending Atlanta Center
Wed 02:49:05 PM 35.7944 -82.2108 101° East 458 527 20,800 -1,700 Descending Atlanta Center
Wed 02:50:05 PM 35.7756 -82.0806 100° East 431 496 19,200 -1,750 Descending Atlanta Center
Wed 02:51:05 PM 35.7569 -81.9506 100° East 397 457 17,300 -2,050 Descending Atlanta Center
Wed 02:52:05 PM 35.7400 -81.8231 99° East 387 445 15,100 -2,269 Descending Atlanta Center
Wed 02:53:04 PM 35.6919 -81.7042 116° Southeast 362 417 12,800 -2,050 Descending Atlanta Center
Wed 02:54:05 PM 35.6336 -81.6036 125° Southeast 332 382 11,000 -983 Descending Atlanta Center
Wed 02:55:00 PM 35.5822 -81.5389 134° Southeast 285 328 10,900 -564 Descending Atlanta Center
Wed 02:56:02 PM 35.5242 -81.4614 133° Southeast 286 329 9,900 -1,415 Descending Atlanta Center
Wed 02:57:03 PM 35.5033 -81.3653 105° East 335 386 8,000 -1,366 Descending Atlanta Center
Wed 02:58:05 PM 35.5181 -81.2653 80° East 299 344 7,100 -541 Descending Atlanta Center
Wed 02:59:05 PM 35.5342 -81.1575 80° East 309 356 6,900 -50 Descending Atlanta Center
Wed 03:00:05 PM 35.5425 -81.0653 84° East 295 339 7,000 -550 Climbing Atlanta Center
Wed 03:01:05 PM 35.5219 -80.9972 110° East 230 265 5,800 -1,100 Descending Atlanta Center
Wed 03:02:05 PM 35.4758 -80.9861 169° South 151 174 4,800 -831 Descending Atlanta Center
Wed 03:03:15 PM 35.4197 -80.9908 184° South 162 186 4,000 -686 Descending Atlanta Center

Login

Don't have an account? Register now (free) for customized features, flight alerts, and more!